Time;durP1;ratioP1;P1;durP2;ratioP2;P2;SDS_P1;SDS_P2;PMS_P1;PMS_P2;Temp;Humidity;BMP_temperature;BMP_pressure;BME280_temperature;BME280_humidity;BME280_pressure;Samples;Min_cycle;Max_cycle;Signal;HPM_P1;HPM_P2
2022/09/20 00:00:17;;;;;;;9.13;4.35;;;;;;;15.89;54.55;99916.75;1725055;83;21549;-78
2022/09/20 00:03:23;;;;;;;8.98;4.22;;;;;;;15.84;54.55;99923.46;1724559;83;21244;-78
2022/09/20 00:06:32;;;;;;;6.25;4.03;;;;;;;15.82;54.44;99921.47;1724899;83;21236;-78
2022/09/20 00:09:39;;;;;;;11.00;4.03;;;;;;;15.75;54.24;99910.98;1725354;83;21180;-78
2022/09/20 00:12:45;;;;;;;7.53;4.40;;;;;;;15.68;54.12;99915.70;1725001;83;21204;-79
2022/09/20 00:15:52;;;;;;;5.28;4.05;;;;;;;15.57;54.12;99911.16;1725126;83;21197;-79
2022/09/20 00:18:58;;;;;;;13.32;4.20;;;;;;;15.56;53.97;99892.91;1724465;83;21240;-79
2022/09/20 00:22:05;;;;;;;6.58;3.70;;;;;;;15.48;54.04;99888.17;1723760;83;21200;-79
2022/09/20 00:25:12;;;;;;;4.87;3.37;;;;;;;15.39;54.10;99881.24;1725048;83;21244;-79
2022/09/20 00:28:12;;;;;;;9.15;3.85;;;;;;;15.38;53.97;99880.91;1723914;83;21241;-78
2022/09/20 00:31:17;;;;;;;6.40;3.50;;;;;;;15.29;53.98;99883.92;1725500;83;21157;-77
2022/09/20 00:37:50;;;;;;;5.85;3.42;;;;;;;15.36;53.80;99878.91;1724450;83;21217;-77
2022/09/20 00:40:56;;;;;;;8.68;3.58;;;;;;;15.29;53.91;99867.90;1723728;83;21197;-77
2022/09/20 00:44:02;;;;;;;6.12;3.20;;;;;;;15.34;53.77;99875.84;1769381;80;21271;-78
2022/09/20 00:47:08;;;;;;;7.22;2.83;;;;;;;15.30;53.77;99870.98;1769549;81;21192;-77
2022/09/20 00:50:52;;;;;;;5.03;2.80;;;;;;;15.31;53.79;99861.12;1769778;81;21354;-77
2022/09/20 00:53:59;;;;;;;5.15;2.72;;;;;;;15.27;53.79;99869.50;1771023;81;21200;-78
2022/09/20 00:57:06;;;;;;;8.13;2.83;;;;;;;15.27;53.76;99866.75;1770966;81;21225;-77
2022/09/20 01:00:16;;;;;;;5.28;2.65;;;;;;;15.31;53.56;99865.78;1769564;81;21193;-78
2022/09/20 01:03:21;;;;;;;;;;;;;;;15.34;53.40;99866.20;1774068;81;21228;-77
2022/09/20 01:06:28;;;;;;;7.00;2.45;;;;;;;15.33;53.30;99863.64;1770955;81;20215;-78
2022/09/20 01:09:35;;;;;;;6.10;2.70;;;;;;;15.36;53.17;99865.13;1769613;81;21200;-77
2022/09/20 01:12:41;;;;;;;7.45;2.15;;;;;;;15.41;53.04;99863.41;1769570;81;21172;-77
2022/09/20 01:15:47;;;;;;;3.62;2.22;;;;;;;15.43;52.92;99860.42;1771051;81;21185;-77
2022/09/20 01:18:54;;;;;;;5.08;2.22;;;;;;;15.51;52.78;99870.67;1769938;81;21232;-78
2022/09/20 01:21:59;;;;;;;5.00;2.22;;;;;;;15.54;52.64;99859.22;1770936;81;21197;-77
2022/09/20 01:25:48;;;;;;;4.08;2.02;;;;;;;15.68;52.36;99854.52;1769559;81;21205;-79
2022/09/20 01:28:55;;;;;;;5.80;2.50;;;;;;;15.79;52.01;99852.96;1770123;81;21240;-78
2022/09/20 01:32:02;;;;;;;3.72;2.30;;;;;;;15.74;51.87;99847.27;1771051;81;21241;-78
2022/09/20 01:35:07;;;;;;;7.10;2.22;;;;;;;15.74;51.90;99841.22;1771369;81;21208;-77
2022/09/20 01:38:37;;;;;;;11.90;2.40;;;;;;;15.80;51.83;99832.05;1770813;81;21818;-78
2022/09/20 01:42:03;;;;;;;3.98;2.27;;;;;;;15.92;51.74;99830.81;1770922;81;21169;-77
2022/09/20 01:45:25;;;;;;;3.85;2.37;;;;;;;16.07;51.53;99831.34;1768463;80;21272;-78
2022/09/20 01:48:40;;;;;;;4.92;2.00;;;;;;;16.10;51.52;99823.16;1770525;81;21483;-78
2022/09/20 01:52:15;;;;;;;3.62;2.08;;;;;;;16.14;51.52;99820.77;1769811;81;21195;-78
2022/09/20 01:55:30;;;;;;;3.95;2.00;;;;;;;16.17;51.43;99817.04;1747113;81;21263;-79
2022/09/20 01:59:22;;;;;;;3.98;1.87;;;;;;;16.18;51.41;99817.87;1770427;81;21225;-78
2022/09/20 02:03:08;;;;;;;3.37;1.90;;;;;;;16.14;51.40;99822.16;1770910;81;21213;-77
2022/09/20 02:06:33;;;;;;;2.35;1.82;;;;;;;16.14;51.31;99818.89;1769458;81;21184;-78
2022/09/20 02:10:01;;;;;;;6.53;1.80;;;;;;;16.14;51.36;99818.89;1759423;81;21235;-78
2022/09/20 02:13:31;;;;;;;2.65;1.85;;;;;;;16.20;51.42;99815.76;1770897;81;21193;-78
2022/09/20 02:16:57;;;;;;;4.05;1.70;;;;;;;16.23;51.33;99807.01;1769467;81;21189;-77
2022/09/20 02:20:13;;;;;;;4.35;1.55;;;;;;;16.27;51.02;99812.39;1762034;81;21252;-78
2022/09/20 02:23:57;;;;;;;7.75;2.62;;;;;;;16.23;51.00;99807.01;1771059;81;21197;-77
2022/09/20 02:27:42;;;;;;;4.10;2.25;;;;;;;16.17;51.28;99806.00;1769464;81;21209;-79
2022/09/20 02:31:04;;;;;;;10.53;1.62;;;;;;;16.05;51.46;99808.66;1770832;81;21220;-79
2022/09/20 02:34:54;;;;;;;2.00;1.50;;;;;;;16.24;51.22;99802.67;1770890;81;21193;-79
2022/09/20 02:38:07;;;;;;;2.85;1.62;;;;;;;16.30;51.08;99810.03;1771039;81;21180;-77
2022/09/20 02:41:45;;;;;;;3.15;1.62;;;;;;;16.29;51.02;99810.27;1759918;81;21212;-78
2022/09/20 02:45:36;;;;;;;3.85;2.08;;;;;;;16.26;51.21;99807.95;1772248;80;21212;-77
2022/09/20 02:48:47;;;;;;;5.25;1.85;;;;;;;16.28;51.13;99816.33;1778986;80;21188;-77
2022/09/20 02:52:09;;;;;;;3.60;1.52;;;;;;;16.30;51.04;99808.66;1777931;80;21208;-78
2022/09/20 02:55:45;;;;;;;7.60;1.70;;;;;;;16.36;50.98;99814.64;1779269;80;21834;-78
2022/09/20 02:59:35;;;;;;;4.75;1.70;;;;;;;16.44;50.81;99805.23;1778851;80;21180;-78
2022/09/20 03:03:14;;;;;;;3.05;1.95;;;;;;;16.46;50.89;99807.22;1779387;80;21165;-78
2022/09/20 03:06:29;;;;;;;4.35;1.45;;;;;;;16.55;50.88;99814.68;1779233;80;21184;-78
2022/09/20 03:09:46;;;;;;;3.75;1.60;;;;;;;16.56;50.85;99805.32;1751621;80;21548;-78
2022/09/20 03:13:28;;;;;;;3.30;1.92;;;;;;;16.57;50.97;99812.55;1779352;80;21188;-78
2022/09/20 03:17:13;;;;;;;2.98;1.50;;;;;;;16.54;51.19;99817.98;1779288;80;21188;-78
2022/09/20 03:20:38;;;;;;;3.10;1.85;;;;;;;16.57;51.53;99818.92;1778228;80;21770;-78
2022/09/20 03:24:00;;;;;;;4.12;1.72;;;;;;;16.50;52.36;99819.50;1779295;80;21846;-78
2022/09/20 03:27:22;;;;;;;5.85;1.50;;;;;;;16.44;54.06;99823.18;1778348;80;21263;-78
2022/09/20 03:30:57;;;;;;;10.32;3.10;;;;;;;16.40;56.10;99823.32;1778201;80;21192;-78
2022/09/20 03:34:30;;;;;;;3.85;2.40;;;;;;;16.23;58.25;99814.78;1777793;80;21196;-77
2022/09/20 03:37:43;;;;;;;9.03;2.33;;;;;;;15.98;60.64;99816.13;1779280;80;21188;-77
2022/09/20 03:41:16;;;;;;;8.38;2.30;;;;;;;15.81;61.60;99811.70;1777975;80;21220;-77
2022/09/20 03:44:42;;;;;;;3.77;2.22;;;;;;;15.66;63.09;99810.30;1779163;80;21192;-77
2022/09/20 03:48:05;;;;;;;4.70;1.95;;;;;;;15.57;64.56;99822.08;1769461;81;21802;-77
2022/09/20 03:51:30;;;;;;;7.75;2.27;;;;;;;15.49;65.06;99830.63;1769660;81;21208;-77
2022/09/20 03:55:21;;;;;;;11.00;2.10;;;;;;;15.36;65.81;99832.91;1771076;81;21169;-78
2022/09/20 03:58:57;;;;;;;10.48;2.70;;;;;;;15.31;66.59;99821.70;1770915;81;21212;-77
2022/09/20 04:02:32;;;;;;;6.47;2.10;;;;;;;15.28;67.05;99833.15;1769559;81;21236;-77
2022/09/20 04:06:12;;;;;;;8.28;2.60;;;;;;;15.43;67.01;99837.88;1771096;81;21279;-77
2022/09/20 04:09:52;;;;;;;6.78;1.70;;;;;;;15.38;67.52;99835.44;1770988;81;21237;-77
2022/09/20 04:13:30;;;;;;;9.15;2.65;;;;;;;15.46;67.78;99848.44;1769956;81;21759;-76
2022/09/20 04:16:53;;;;;;;13.88;2.70;;;;;;;15.42;68.23;99862.34;1769530;81;21184;-76
2022/09/20 04:20:09;;;;;;;3.22;1.87;;;;;;;15.48;68.56;99865.62;1770647;81;21221;-77
2022/09/20 04:23:33;;;;;;;6.35;2.95;;;;;;;15.62;68.77;99849.86;1771250;81;21193;-77
2022/09/20 04:26:44;;;;;;;9.15;3.22;;;;;;;15.62;69.07;99842.09;1764276;81;21511;-77
2022/09/20 04:30:08;;;;;;;3.92;2.35;;;;;;;15.50;69.88;99837.29;1769585;81;21820;-77
2022/09/20 04:33:26;;;;;;;5.80;2.50;;;;;;;15.41;70.61;99828.12;1770304;81;21276;-77
2022/09/20 04:36:45;;;;;;;8.10;2.02;;;;;;;15.42;71.07;99847.18;1771164;81;21189;-77
2022/09/20 04:40:01;;;;;;;5.53;2.40;;;;;;;15.51;70.89;99842.27;1770968;81;21220;-77
2022/09/20 04:43:36;;;;;;;5.08;1.70;;;;;;;15.56;70.93;99849.34;1771099;81;21197;-77
2022/09/20 04:47:23;;;;;;;3.95;1.70;;;;;;;15.66;70.53;99850.27;1770038;81;21236;-76
2022/09/20 04:51:13;;;;;;;4.97;1.72;;;;;;;15.77;69.92;99839.41;1770035;81;21220;-77
2022/09/20 04:54:40;;;;;;;5.90;1.70;;;;;;;15.82;69.65;99831.31;1714792;82;21183;-79
2022/09/20 04:58:19;;;;;;;3.95;1.85;;;;;;;15.88;69.79;99819.91;1697503;83;21243;-79
2022/09/20 05:02:20;;;;;;;4.47;1.32;;;;;;;15.97;69.36;99819.12;1714707;81;21146;-79
2022/09/20 05:05:39;;;;;;;2.15;1.25;;;;;;;16.02;69.41;99819.29;1715685;81;21195;-79
2022/09/20 05:09:18;;;;;;;4.42;1.90;;;;;;;16.09;68.82;99815.42;1716892;82;21248;-78
2022/09/20 05:12:52;;;;;;;2.65;1.30;;;;;;;16.25;67.91;99823.66;1719567;81;21209;-78
2022/09/20 05:16:17;;;;;;;3.17;1.70;;;;;;;16.23;67.24;99815.28;1716349;81;21240;-78
2022/09/20 05:20:01;;;;;;;4.10;1.50;;;;;;;16.59;66.61;99793.83;1729848;81;21212;-80
2022/09/20 05:23:43;;;;;;;9.95;1.80;;;;;;;16.59;66.12;99786.39;1682005;83;21564;-79
2022/09/20 05:27:05;;;;;;;2.62;1.30;;;;;;;16.31;67.03;99792.94;1684937;83;21261;-79
2022/09/20 05:30:13;;;;;;;11.08;1.75;;;;;;;16.15;67.64;99786.63;1685010;83;21947;-79
2022/09/20 05:33:45;;;;;;;2.30;1.25;;;;;;;16.05;68.31;99776.94;1682544;84;21186;-79
2022/09/20 05:37:15;;;;;;;2.72;1.30;;;;;;;16.12;68.05;99780.16;1650075;85;21225;-78
2022/09/20 05:41:02;;;;;;;1.77;1.10;;;;;;;16.13;67.81;99774.95;1685655;83;21243;-78
2022/09/20 05:44:55;;;;;;;2.75;1.25;;;;;;;16.33;66.46;99777.02;1683817;83;21264;-79
2022/09/20 05:48:20;;;;;;;6.47;1.67;;;;;;;16.27;66.49;99781.50;1686814;83;21251;-79
2022/09/20 05:51:54;;;;;;;1.80;1.25;;;;;;;16.37;65.05;99780.98;1689567;82;21305;-79
2022/09/20 05:55:42;;;;;;;3.65;1.50;;;;;;;16.62;65.21;99780.97;1688825;82;22778;-78
2022/09/20 05:59:09;;;;;;;3.20;1.47;;;;;;;16.82;64.00;99782.15;1694989;82;22028;-77
2022/09/20 06:02:41;;;;;;;3.00;1.60;;;;;;;16.82;64.00;99782.15;1674991;83;21267;-78
2022/09/20 06:06:05;;;;;;;6.97;1.30;;;;;;;16.74;63.80;99790.73;1675270;83;21205;-78
2022/09/20 06:09:35;;;;;;;2.55;1.45;;;;;;;16.86;63.35;99786.98;1645112;84;21205;-79
2022/09/20 06:13:13;;;;;;;3.67;1.50;;;;;;;16.94;63.26;99791.88;1700396;82;21220;-79
2022/09/20 06:16:26;;;;;;;2.87;1.52;;;;;;;17.08;63.40;99794.28;1701230;82;21941;-79
2022/09/20 06:20:18;;;;;;;4.10;1.60;;;;;;;17.22;63.43;99788.56;1689072;83;21200;-78
2022/09/20 06:23:24;;;;;;;5.00;1.52;;;;;;;17.26;63.16;99798.92;1698472;82;21212;-78
2022/09/20 06:26:31;;;;;;;3.20;1.40;;;;;;;17.50;62.24;99795.76;1702428;82;21200;-78
2022/09/20 06:29:42;;;;;;;2.77;1.70;;;;;;;17.58;62.31;99790.42;1699823;82;21224;-78
2022/09/20 06:33:16;;;;;;;4.83;1.50;;;;;;;17.62;62.05;99780.58;1683184;83;21210;-78
2022/09/20 06:43:25;;;;;;;;;;;;;;;17.93;60.96;99786.97;1698028;84;21498;-78
2022/09/20 06:46:30;;;;;;;5.45;1.60;;;;;;;17.93;59.40;99776.74;1670355;84;20228;-80
2022/09/20 06:49:36;;;;;;;4.12;1.42;;;;;;;17.94;59.05;99779.80;1681720;83;21230;-78
2022/09/20 06:52:43;;;;;;;3.35;1.65;;;;;;;17.73;60.33;99769.24;1691738;82;21833;-80
2022/09/20 06:55:50;;;;;;;2.25;1.50;;;;;;;17.86;60.84;99774.61;1667541;84;21188;-80
2022/09/20 06:58:55;;;;;;;3.15;1.50;;;;;;;17.97;60.44;99768.24;1668807;84;21166;-80
2022/09/20 07:01:54;;;;;;;3.52;1.60;;;;;;;17.87;60.01;99763.84;1645904;85;21196;-80
2022/09/20 07:04:58;;;;;;;2.40;1.80;;;;;;;17.84;60.54;99762.95;1638449;86;21849;-79
2022/09/20 07:08:07;;;;;;;5.40;1.60;;;;;;;17.83;60.76;99761.23;1645121;85;21205;-80
2022/09/20 07:11:16;;;;;;;5.03;1.90;;;;;;;17.70;61.19;99751.21;1657471;85;21258;-80
2022/09/20 07:14:22;;;;;;;2.83;1.50;;;;;;;17.70;61.68;99740.70;1651999;85;21195;-79
2022/09/20 07:17:27;;;;;;;3.30;1.52;;;;;;;17.70;62.86;99735.16;1657495;85;21189;-78
2022/09/20 07:20:33;;;;;;;2.72;1.75;;;;;;;17.81;62.93;99745.43;1652933;85;21184;-79
2022/09/20 07:23:38;;;;;;;7.80;1.77;;;;;;;17.83;63.89;99741.87;1654019;85;21400;-79
2022/09/20 07:26:44;;;;;;;2.85;1.70;;;;;;;18.01;63.14;99734.03;1654230;85;22171;-79
2022/09/20 07:29:50;;;;;;;4.65;1.65;;;;;;;18.23;63.64;99732.37;1656061;85;21220;-79
2022/09/20 07:32:57;;;;;;;4.28;1.98;;;;;;;18.38;64.11;99736.88;1656055;85;21200;-79
2022/09/20 07:35:56;;;;;;;5.80;1.52;;;;;;;18.53;62.72;99734.99;1655091;85;21244;-79
2022/09/20 07:39:01;;;;;;;4.85;2.05;;;;;;;18.64;62.68;99726.39;1657600;85;21269;-79
2022/09/20 07:42:07;;;;;;;5.33;1.80;;;;;;;18.82;62.60;99735.09;1656949;85;21234;-79
2022/09/20 07:45:17;;;;;;;5.37;2.42;;;;;;;18.83;62.76;99743.73;1654204;85;21256;-79
2022/09/20 07:48:24;;;;;;;3.35;2.15;;;;;;;18.91;62.60;99739.17;1653660;85;21251;-79
2022/09/20 07:51:31;;;;;;;6.80;2.20;;;;;;;19.15;61.95;99738.05;1653023;85;21227;-79
2022/09/20 07:54:37;;;;;;;5.53;2.60;;;;;;;19.29;61.96;99737.21;1654812;84;21225;-78
2022/09/20 07:57:44;;;;;;;4.55;2.27;;;;;;;19.39;61.83;99731.02;1697048;83;21228;-79
2022/09/20 08:00:50;;;;;;;5.72;2.50;;;;;;;19.38;61.52;99737.11;1696465;83;21509;-79
2022/09/20 08:03:56;;;;;;;5.45;2.77;;;;;;;19.55;61.69;99739.91;1691161;83;21236;-79
2022/09/20 08:07:01;;;;;;;5.55;3.12;;;;;;;19.78;61.91;99736.75;1698664;83;21279;-80
2022/09/20 08:10:07;;;;;;;4.10;2.80;;;;;;;19.80;62.25;99735.39;1693020;83;21271;-79
2022/09/20 08:13:14;;;;;;;10.80;3.50;;;;;;;19.94;62.73;99735.91;1713951;82;21191;-79
2022/09/20 08:16:21;;;;;;;8.38;3.50;;;;;;;20.01;61.67;99737.14;1713695;82;21200;-79
2022/09/20 08:19:29;;;;;;;8.10;4.20;;;;;;;19.94;62.12;99735.07;1716069;82;21184;-80
2022/09/20 08:22:34;;;;;;;14.15;6.22;;;;;;;20.02;62.98;99729.11;1695382;83;21206;-80
2022/09/20 08:25:39;;;;;;;12.15;6.58;;;;;;;20.16;63.18;99724.90;1695736;83;21227;-80
2022/09/20 08:28:45;;;;;;;13.10;5.70;;;;;;;20.28;63.18;99716.45;1712319;82;21364;-80
2022/09/20 08:31:57;;;;;;;12.28;6.33;;;;;;;20.43;62.31;99718.09;1693987;83;21144;-80
2022/09/20 08:35:16;;;;;;;17.25;8.00;;;;;;;20.62;62.29;99721.45;1697700;83;21188;-80
2022/09/20 08:38:26;;;;;;;18.77;8.80;;;;;;;20.89;62.72;99721.00;1657699;85;21213;-77
2022/09/20 08:41:54;;;;;;;17.85;8.95;;;;;;;21.19;62.77;99714.13;1655918;85;21249;-78
2022/09/20 08:45:14;;;;;;;26.87;12.35;;;;;;;21.50;61.53;99715.86;1649870;85;22441;-79
2022/09/20 08:48:27;;;;;;;18.17;8.45;;;;;;;21.67;60.43;99711.87;1665043;84;21224;-79
2022/09/20 08:51:34;;;;;;;12.55;5.47;;;;;;;21.72;61.01;99708.30;1687261;83;21320;-79
2022/09/20 08:54:42;;;;;;;10.15;4.45;;;;;;;21.66;60.43;99706.58;1689000;83;21189;-79
2022/09/20 08:57:48;;;;;;;9.63;4.62;;;;;;;21.69;60.40;99698.55;1692536;83;21601;-78
2022/09/20 09:00:57;;;;;;;6.70;2.58;;;;;;;21.82;60.79;99701.42;1693419;83;22620;-78
2022/09/20 09:04:23;;;;;;;5.53;2.20;;;;;;;22.08;61.22;99701.66;1676390;84;21284;-79
2022/09/20 09:07:32;;;;;;;3.85;1.72;;;;;;;22.08;60.09;99702.49;1693970;84;21165;-79
2022/09/20 09:10:42;;;;;;;3.42;1.50;;;;;;;22.27;60.38;99702.94;1690691;83;21218;-79
2022/09/20 09:14:46;;;;;;;3.65;1.40;;;;;;;22.43;60.02;99696.34;1685376;83;21200;-79
2022/09/20 09:17:17;;;;;;;4.10;1.42;;;;;;;22.58;60.27;99698.38;1688643;83;21271;-79
2022/09/20 09:20:27;;;;;;;5.28;2.17;;;;;;;22.83;58.07;99689.88;1689357;83;21197;-79
2022/09/20 09:23:35;;;;;;;5.37;1.87;;;;;;;23.03;55.76;99698.36;1679338;83;21200;-79
2022/09/20 09:26:47;;;;;;;2.62;1.30;;;;;;;23.05;56.33;99694.73;1678953;83;21214;-80
2022/09/20 09:30:01;;;;;;;4.47;1.60;;;;;;;23.37;54.91;99700.69;1685593;84;21204;-80
2022/09/20 09:33:34;;;;;;;5.28;1.42;;;;;;;23.44;54.28;99695.70;1688591;83;21239;-80
2022/09/20 09:36:36;;;;;;;5.75;1.75;;;;;;;23.58;54.90;99688.46;1696818;83;21441;-81
2022/09/20 09:39:54;;;;;;;2.08;1.40;;;;;;;23.65;54.58;99686.81;1698258;83;21189;-80
2022/09/20 09:43:07;;;;;;;2.98;1.20;;;;;;;23.88;54.55;99677.89;1700616;83;21291;-77
2022/09/20 09:46:34;;;;;;;5.42;1.17;;;;;;;24.13;54.19;99677.03;1690529;83;21210;-79
2022/09/20 09:49:41;;;;;;;3.08;1.20;;;;;;;24.42;52.77;99665.31;1669113;84;21260;-80
2022/09/20 09:52:47;;;;;;;4.83;1.12;;;;;;;24.48;49.66;99664.16;1687726;84;21218;-80
2022/09/20 09:56:13;;;;;;;4.40;1.25;;;;;;;24.42;50.49;99666.14;1690785;83;21200;-80
2022/09/20 09:59:38;;;;;;;2.10;1.40;;;;;;;24.45;50.19;99661.92;1689898;83;21184;-80
2022/09/20 10:03:08;;;;;;;3.30;1.30;;;;;;;24.47;48.65;99662.49;1692275;83;21252;-80
2022/09/20 10:06:29;;;;;;;2.30;1.05;;;;;;;24.32;49.05;99657.72;1685794;83;21240;-80
2022/09/20 10:09:58;;;;;;;4.00;1.10;;;;;;;24.32;48.58;99651.30;1690134;83;21465;-80
2022/09/20 10:13:29;;;;;;;1.55;0.88;;;;;;;24.25;48.40;99647.98;1672706;84;21203;-80
2022/09/20 10:16:57;;;;;;;5.10;1.35;;;;;;;24.34;48.45;99654.66;1699574;83;21832;-80
2022/09/20 10:20:10;;;;;;;6.75;0.68;;;;;;;24.53;46.74;99650.17;1636189;83;21247;-80
2022/09/20 10:23:43;;;;;;;1.95;1.10;;;;;;;24.58;46.24;99643.72;1667882;84;21209;-80
2022/09/20 10:27:08;;;;;;;3.27;0.93;;;;;;;24.56;46.30;99648.22;1675881;84;21181;-80
2022/09/20 10:30:30;;;;;;;5.30;1.10;;;;;;;24.59;46.92;99649.02;1679917;83;21239;-80
2022/09/20 10:34:04;;;;;;;5.37;1.45;;;;;;;24.69;46.85;99648.14;1677170;83;21229;-80
2022/09/20 10:37:09;;;;;;;1.85;1.10;;;;;;;24.83;45.35;99650.60;1686211;83;21217;-80
2022/09/20 10:43:58;;;;;;;2.00;0.90;;;;;;;24.91;43.92;99640.79;1665621;84;21260;-80
2022/09/20 10:47:18;;;;;;;2.40;0.90;;;;;;;24.98;42.85;99645.49;1686276;83;21180;-79
2022/09/20 10:50:37;;;;;;;2.52;0.90;;;;;;;24.95;43.66;99641.89;1685008;83;22634;-80
2022/09/20 10:54:23;;;;;;;1.62;0.90;;;;;;;24.92;43.58;99636.30;1682656;84;21201;-78
2022/09/20 10:58:00;;;;;;;1.98;0.90;;;;;;;24.94;42.51;99637.43;1691037;83;21213;-79
2022/09/20 11:01:36;;;;;;;1.62;0.80;;;;;;;25.19;42.97;99626.11;1670688;84;22714;-78
2022/09/20 11:04:53;;;;;;;1.50;0.80;;;;;;;25.40;42.76;99626.80;1701001;83;21261;-79
2022/09/20 11:08:24;;;;;;;3.55;0.80;;;;;;;25.41;40.29;99622.06;1697609;83;21200;-78
2022/09/20 11:11:50;;;;;;;2.17;0.95;;;;;;;25.39;39.80;99618.13;1695058;83;21192;-80
2022/09/20 11:15:08;;;;;;;4.70;1.20;;;;;;;25.33;40.70;99606.71;1682736;83;21795;-79
2022/09/20 11:18:39;;;;;;;2.08;0.82;;;;;;;25.25;40.81;99605.92;1680838;83;21209;-77
2022/09/20 11:21:51;;;;;;;1.30;0.70;;;;;;;25.04;38.68;99607.16;1682559;84;21209;-79
2022/09/20 11:25:25;;;;;;;8.08;1.10;;;;;;;24.90;38.87;99607.79;1683170;83;21551;-78
2022/09/20 11:28:34;;;;;;;4.65;1.00;;;;;;;25.04;38.96;99605.77;1683064;83;21200;-78
2022/09/20 11:31:47;;;;;;;4.28;0.90;;;;;;;24.86;38.61;99606.69;1681911;83;21293;-78
2022/09/20 11:35:13;;;;;;;4.03;0.90;;;;;;;25.03;37.61;99615.25;1682644;84;21792;-79
2022/09/20 11:38:30;;;;;;;5.47;0.80;;;;;;;24.93;38.00;99614.19;1682059;84;22478;-79
2022/09/20 11:41:36;;;;;;;1.92;0.80;;;;;;;24.84;37.82;99610.88;1702233;83;21197;-79
2022/09/20 11:44:45;;;;;;;2.10;0.70;;;;;;;24.71;37.92;99617.95;1703032;83;21470;-79
2022/09/20 11:47:58;;;;;;;5.83;0.80;;;;;;;24.56;38.03;99615.20;1700432;83;21200;-79
2022/09/20 11:51:24;;;;;;;2.90;0.98;;;;;;;24.57;38.48;99614.94;1702668;83;21240;-78
2022/09/20 11:55:02;;;;;;;3.10;0.93;;;;;;;24.53;38.69;99613.83;1704191;83;21585;-79
2022/09/20 11:58:21;;;;;;;3.00;0.70;;;;;;;24.51;37.77;99620.25;1677369;83;21255;-78
2022/09/20 12:01:47;;;;;;;2.72;1.00;;;;;;;24.38;37.83;99615.28;1704735;83;21223;-78
2022/09/20 12:04:54;;;;;;;3.58;1.00;;;;;;;24.34;38.55;99608.55;1704406;83;21787;-79
2022/09/20 12:08:02;;;;;;;16.48;1.30;;;;;;;24.29;38.86;99607.17;1684039;84;21775;-79
2022/09/20 12:11:19;;;;;;;3.17;1.17;;;;;;;24.36;39.09;99610.48;1679658;84;21263;-79
2022/09/20 12:14:32;;;;;;;3.12;1.07;;;;;;;24.27;39.30;99607.44;1679956;83;21200;-78
2022/09/20 12:17:58;;;;;;;1.50;0.80;;;;;;;24.39;38.75;99604.37;1684710;84;21224;-79
2022/09/20 12:21:15;;;;;;;1.62;0.90;;;;;;;24.34;37.58;99593.19;1704045;83;21200;-79
2022/09/20 12:24:24;;;;;;;2.05;0.90;;;;;;;24.36;38.11;99590.92;1702733;83;22115;-79
2022/09/20 12:27:37;;;;;;;4.17;1.05;;;;;;;24.45;37.61;99594.28;1697512;83;21238;-78
2022/09/20 12:30:42;;;;;;;1.92;0.90;;;;;;;24.58;37.68;99587.81;1685240;84;21204;-78
2022/09/20 12:34:21;;;;;;;2.35;1.00;;;;;;;24.72;38.21;99590.26;1683330;84;21904;-80
2022/09/20 12:37:29;;;;;;;3.35;1.10;;;;;;;24.84;38.60;99587.97;1682371;84;21286;-78
2022/09/20 12:40:35;;;;;;;1.98;0.82;;;;;;;24.89;37.06;99582.88;1677850;84;21196;-79
2022/09/20 12:43:42;;;;;;;2.02;1.00;;;;;;;24.89;36.55;99591.28;1692878;83;21224;-79
2022/09/20 12:46:52;;;;;;;3.95;0.88;;;;;;;24.92;34.39;99592.11;1698154;83;21233;-79
2022/09/20 12:53:23;;;;;;;5.17;1.22;;;;;;;24.63;34.06;99580.80;1685408;83;21206;-78
2022/09/20 12:56:28;;;;;;;4.42;1.10;;;;;;;24.60;34.51;99575.20;1691626;84;21233;-79
2022/09/20 12:59:33;;;;;;;4.03;1.00;;;;;;;24.60;34.41;99578.00;1691972;84;21210;-79
2022/09/20 13:02:58;;;;;;;1.17;0.55;;;;;;;24.53;33.28;99573.30;1692687;84;21345;-79
2022/09/20 13:06:18;;;;;;;3.08;0.82;;;;;;;24.39;33.62;99578.66;1694004;84;21798;-78
2022/09/20 13:09:16;;;;;;;6.67;1.52;;;;;;;24.17;33.71;99575.34;1694265;84;21236;-78
2022/09/20 13:12:22;;;;;;;4.47;1.60;;;;;;;24.02;34.27;99579.02;1720248;83;22525;-79
2022/09/20 13:15:27;;;;;;;3.00;1.42;;;;;;;23.91;34.66;99568.43;1720045;83;21877;-78
2022/09/20 13:18:33;;;;;;;1.92;1.07;;;;;;;23.84;34.88;99566.47;1720796;83;21244;-78
2022/09/20 13:21:44;;;;;;;2.50;0.90;;;;;;;23.77;34.69;99556.73;1721839;83;21223;-79
2022/09/20 13:25:04;;;;;;;3.42;0.90;;;;;;;23.60;35.06;99552.23;1720577;83;21251;-78
2022/09/20 13:28:34;;;;;;;1.67;0.62;;;;;;;23.67;34.91;99557.02;1721214;83;21223;-78
2022/09/20 13:31:41;;;;;;;2.02;0.80;;;;;;;23.65;34.96;99556.44;1702350;83;21224;-78
2022/09/20 13:34:47;;;;;;;2.33;0.75;;;;;;;23.66;34.13;99551.13;1694830;84;21210;-78
2022/09/20 13:38:06;;;;;;;4.55;0.88;;;;;;;23.58;34.54;99543.31;1693335;84;21217;-78
2022/09/20 13:41:15;;;;;;;4.28;0.80;;;;;;;23.57;34.24;99548.63;1696706;84;21245;-78
2022/09/20 13:44:24;;;;;;;1.97;0.60;;;;;;;23.59;34.35;99550.56;1703359;84;21225;-78
2022/09/20 13:47:37;;;;;;;2.35;0.95;;;;;;;23.69;34.17;99554.77;1673783;85;22199;-79
2022/09/20 13:50:42;;;;;;;3.30;0.90;;;;;;;23.52;34.35;99558.93;1700321;84;21329;-78
2022/09/20 13:53:49;;;;;;;1.25;0.70;;;;;;;23.50;34.77;99561.18;1674944;85;21231;-78
2022/09/20 13:56:55;;;;;;;1.90;0.88;;;;;;;23.37;34.85;99559.77;1684398;85;21750;-79
2022/09/20 14:00:00;;;;;;;2.52;1.35;;;;;;;23.33;35.53;99559.48;1701293;84;21221;-78
2022/09/20 14:03:05;;;;;;;0.95;0.72;;;;;;;23.12;36.34;99565.63;1701848;84;21260;-78
2022/09/20 14:06:20;;;;;;;5.25;1.50;;;;;;;22.99;36.69;99559.18;1674805;85;21266;-79
2022/09/20 14:09:43;;;;;;;6.40;1.20;;;;;;;23.02;37.15;99559.20;1685311;85;21206;-78
2022/09/20 14:12:48;;;;;;;2.22;0.88;;;;;;;22.99;36.85;99553.60;1704307;84;21315;-78
2022/09/20 14:15:54;;;;;;;1.75;0.68;;;;;;;22.98;36.47;99547.75;1675938;85;21785;-78
2022/09/20 14:19:01;;;;;;;3.27;1.22;;;;;;;22.82;35.58;99558.02;1702710;84;21292;-79
2022/09/20 14:22:11;;;;;;;4.72;0.72;;;;;;;22.67;35.82;99555.16;1674570;85;21167;-79
2022/09/20 14:25:24;;;;;;;3.87;0.75;;;;;;;22.62;36.58;99561.56;1704132;84;21213;-78
2022/09/20 14:28:29;;;;;;;2.50;1.00;;;;;;;22.57;37.48;99560.70;1703190;84;21245;-79
2022/09/20 14:31:37;;;;;;;7.87;1.12;;;;;;;22.54;37.77;99557.93;1636883;86;21182;-79
2022/09/20 14:34:48;;;;;;;4.28;0.90;;;;;;;22.45;37.84;99560.41;1703432;84;21249;-79
2022/09/20 14:38:02;;;;;;;8.70;1.30;;;;;;;22.31;38.41;99559.23;1699966;84;21193;-78
2022/09/20 14:41:07;;;;;;;4.95;1.10;;;;;;;22.20;38.35;99556.92;1672366;85;21757;-78
2022/09/20 14:44:33;;;;;;;2.15;0.93;;;;;;;22.10;38.67;99554.62;1674348;85;21758;-78
2022/09/20 14:47:48;;;;;;;3.05;1.10;;;;;;;22.09;39.11;99562.70;1704036;84;21791;-78
2022/09/20 14:51:17;;;;;;;2.90;1.12;;;;;;;22.06;39.09;99561.83;1702516;84;21259;-78
2022/09/20 14:54:34;;;;;;;3.50;1.12;;;;;;;21.91;39.47;99558.41;1704200;84;21250;-78
2022/09/20 14:57:39;;;;;;;2.25;1.25;;;;;;;21.86;39.95;99561.16;1704173;84;21262;-78
2022/09/20 15:01:10;;;;;;;2.67;1.07;;;;;;;21.86;40.51;99563.95;1703125;84;21323;-78
2022/09/20 15:04:30;;;;;;;2.80;1.12;;;;;;;21.78;40.72;99561.09;1693653;84;21535;-79
2022/09/20 15:07:35;;;;;;;2.37;1.20;;;;;;;21.68;41.01;99559.09;1698897;84;21206;-79
2022/09/20 15:10:41;;;;;;;5.03;1.67;;;;;;;21.63;41.26;99566.01;1699190;84;21225;-79
2022/09/20 15:13:46;;;;;;;4.05;1.65;;;;;;;21.57;41.98;99564.86;1699903;84;21812;-79
2022/09/20 15:16:53;;;;;;;5.42;1.80;;;;;;;21.40;42.62;99566.37;1698972;84;21189;-79
2022/09/20 15:19:59;;;;;;;6.05;1.30;;;;;;;21.30;43.26;99566.27;1699255;84;21249;-77
2022/09/20 15:23:06;;;;;;;4.92;1.55;;;;;;;21.22;43.14;99563.95;1699071;84;21867;-77
2022/09/20 15:26:12;;;;;;;3.47;1.20;;;;;;;21.04;43.19;99567.98;1699888;84;21265;-77
2022/09/20 15:29:23;;;;;;;2.37;1.10;;;;;;;20.93;42.72;99575.36;1698376;84;21840;-77
2022/09/20 15:32:27;;;;;;;;;;;;;;;20.80;42.50;99584.14;1702805;84;21768;-78
2022/09/20 15:35:32;;;;;;;3.33;1.40;;;;;;;20.71;42.21;99576.81;1699505;84;20197;-78
2022/09/20 15:38:38;;;;;;;8.30;1.70;;;;;;;20.57;43.07;99572.20;1699792;84;21194;-78
2022/09/20 15:41:45;;;;;;;5.15;1.20;;;;;;;20.45;43.55;99571.45;1700170;84;21209;-77
2022/09/20 15:44:51;;;;;;;6.67;1.50;;;;;;;20.47;43.53;99569.83;1688181;84;21399;-77
2022/09/20 15:47:57;;;;;;;3.30;1.37;;;;;;;20.36;44.21;99575.78;1687890;85;21753;-77